FIN5PK EFHK-EFKT
Flight info
| Callsign | FIN5PK |
|---|---|
| Flight time | 1h 16m |
| Altitude | 38000 |
| Route | TEVRU Y75 EVIMI |
| Aircraft | A320/M-SDE3FGHIRWY/LB1 |
Departure
| Time | 2026-04-20 19:30 |
|---|---|
| Airport | Helsinki Vantaa Airport (EFHK) |
Arrival
| Time | 2026-04-20 20:47 |
|---|---|
| Airport | Kittilä International Airport (EFKT) |
| Time | Latitude | Longitude | Altitude | Speed | Heading |
|---|---|---|---|---|---|
| 2026-04-20 19:07 | 60.31863 | 24.96996 | 162 ft | 0 kts | 243° |
| 2026-04-20 19:10 | 60.31863 | 24.96997 | 162 ft | 0 kts | 243° |
| 2026-04-20 19:21 | 60.31872 | 24.97032 | 161 ft | 4 kts | 244° |
| 2026-04-20 19:21 | 60.31882 | 24.97081 | 161 ft | 4 kts | 256° |
| 2026-04-20 19:21 | 60.31883 | 24.97129 | 161 ft | 4 kts | 314° |
| 2026-04-20 19:22 | 60.31865 | 24.97153 | 161 ft | 4 kts | 333° |
| 2026-04-20 19:22 | 60.31852 | 24.97166 | 161 ft | 0 kts | 333° |
| 2026-04-20 19:24 | 60.31868 | 24.97150 | 161 ft | 7 kts | 333° |
| 2026-04-20 19:24 | 60.31941 | 24.97076 | 161 ft | 16 kts | 332° |
| 2026-04-20 19:24 | 60.32045 | 24.96966 | 161 ft | 18 kts | 332° |
| 2026-04-20 19:25 | 60.32159 | 24.96834 | 161 ft | 20 kts | 329° |
| 2026-04-20 19:25 | 60.32238 | 24.96738 | 161 ft | 11 kts | 323° |
| 2026-04-20 19:25 | 60.32228 | 24.96621 | 161 ft | 9 kts | 225° |
| 2026-04-20 19:25 | 60.32186 | 24.96531 | 161 ft | 8 kts | 227° |
| 2026-04-20 19:26 | 60.32148 | 24.96445 | 162 ft | 10 kts | 227° |
| 2026-04-20 19:26 | 60.32081 | 24.96298 | 162 ft | 18 kts | 227° |
| 2026-04-20 19:26 | 60.31982 | 24.96079 | 162 ft | 24 kts | 228° |
| 2026-04-20 19:26 | 60.31861 | 24.95811 | 161 ft | 27 kts | 227° |
| 2026-04-20 19:27 | 60.31731 | 24.95524 | 161 ft | 29 kts | 227° |
| 2026-04-20 19:27 | 60.31592 | 24.95218 | 161 ft | 30 kts | 227° |
| 2026-04-20 19:27 | 60.31495 | 24.95005 | 161 ft | 31 kts | 227° |
| 2026-04-20 19:27 | 60.31344 | 24.94674 | 161 ft | 33 kts | 227° |
| 2026-04-20 19:28 | 60.31227 | 24.94416 | 161 ft | 22 kts | 227° |
| 2026-04-20 19:28 | 60.31131 | 24.94199 | 161 ft | 22 kts | 228° |
| 2026-04-20 19:28 | 60.31035 | 24.93890 | 161 ft | 16 kts | 279° |
| 2026-04-20 19:28 | 60.31105 | 24.93719 | 161 ft | 12 kts | 321° |
| 2026-04-20 19:29 | 60.31156 | 24.93708 | 161 ft | 13 kts | 22° |
| 2026-04-20 19:29 | 60.31187 | 24.93763 | 162 ft | 0 kts | 47° |
| 2026-04-20 19:29 | 60.31321 | 24.94056 | 164 ft | 67 kts | 47° |
| 2026-04-20 19:30 | 60.31798 | 24.95108 | 164 ft | 133 kts | 47° |
| 2026-04-20 19:30 | 60.32513 | 24.96669 | 489 ft | 154 kts | 46° |
| 2026-04-20 19:30 | 60.33227 | 24.98255 | 1337 ft | 151 kts | 46° |
| 2026-04-20 19:30 | 60.33981 | 24.99908 | 1853 ft | 171 kts | 46° |
| 2026-04-20 19:31 | 60.34840 | 25.01791 | 2271 ft | 195 kts | 46° |
| 2026-04-20 19:31 | 60.35825 | 25.03959 | 2794 ft | 218 kts | 47° |
| 2026-04-20 19:31 | 60.36884 | 25.06304 | 3445 ft | 236 kts | 47° |
| 2026-04-20 19:31 | 60.38014 | 25.08788 | 4401 ft | 243 kts | 47° |
| 2026-04-20 19:32 | 60.39174 | 25.11330 | 5373 ft | 249 kts | 45° |
| 2026-04-20 19:32 | 60.40661 | 25.13120 | 6307 ft | 256 kts | 14° |
| 2026-04-20 19:32 | 60.42448 | 25.13437 | 7297 ft | 260 kts | 4° |
| 2026-04-20 19:32 | 60.44264 | 25.13421 | 8250 ft | 263 kts | 2° |
| 2026-04-20 19:33 | 60.46110 | 25.13331 | 9202 ft | 267 kts | 2° |
| 2026-04-20 19:33 | 60.47976 | 25.13259 | 10160 ft | 270 kts | 3° |
| 2026-04-20 19:33 | 60.49866 | 25.13105 | 11008 ft | 275 kts | 356° |
| 2026-04-20 19:33 | 60.51763 | 25.12085 | 11626 ft | 295 kts | 342° |
| 2026-04-20 19:34 | 60.53694 | 25.10242 | 12005 ft | 316 kts | 339° |
| 2026-04-20 19:34 | 60.55706 | 25.08279 | 12720 ft | 323 kts | 339° |
| 2026-04-20 19:34 | 60.57748 | 25.06289 | 13532 ft | 328 kts | 339° |
| 2026-04-20 19:34 | 60.59792 | 25.04297 | 14302 ft | 332 kts | 339° |
| 2026-04-20 19:35 | 60.61958 | 25.02759 | 14997 ft | 329 kts | 355° |
| 2026-04-20 19:35 | 60.64234 | 25.02559 | 15724 ft | 328 kts | 4° |
| 2026-04-20 19:35 | 60.66522 | 25.02597 | 16468 ft | 331 kts | 4° |
| 2026-04-20 19:35 | 60.68834 | 25.02638 | 17197 ft | 334 kts | 4° |
| 2026-04-20 19:36 | 60.71168 | 25.02674 | 17908 ft | 337 kts | 4° |
| 2026-04-20 19:36 | 60.73528 | 25.02704 | 18615 ft | 340 kts | 4° |
| 2026-04-20 19:36 | 60.75903 | 25.02733 | 19244 ft | 343 kts | 5° |
| 2026-04-20 19:36 | 60.78298 | 25.02766 | 19884 ft | 345 kts | 5° |
| 2026-04-20 19:37 | 60.80709 | 25.02801 | 20521 ft | 348 kts | 5° |
| 2026-04-20 19:37 | 60.83140 | 25.02837 | 21163 ft | 350 kts | 5° |
| 2026-04-20 19:37 | 60.85580 | 25.02873 | 21801 ft | 352 kts | 5° |
| 2026-04-20 19:37 | 60.88042 | 25.02884 | 22449 ft | 355 kts | 5° |
| 2026-04-20 19:38 | 60.90520 | 25.02862 | 23101 ft | 357 kts | 4° |
| 2026-04-20 19:38 | 60.93016 | 25.02827 | 23715 ft | 360 kts | 4° |
| 2026-04-20 19:38 | 60.95533 | 25.02787 | 24254 ft | 363 kts | 4° |
| 2026-04-20 19:38 | 60.98062 | 25.02746 | 24734 ft | 366 kts | 4° |
| 2026-04-20 19:39 | 61.00621 | 25.02702 | 25229 ft | 368 kts | 4° |
| 2026-04-20 19:39 | 61.03194 | 25.02662 | 25688 ft | 371 kts | 4° |
| 2026-04-20 19:39 | 61.05786 | 25.02624 | 26144 ft | 374 kts | 4° |
| 2026-04-20 19:39 | 61.08397 | 25.02585 | 26603 ft | 377 kts | 4° |
| 2026-04-20 19:40 | 61.11029 | 25.02546 | 27027 ft | 379 kts | 4° |
| 2026-04-20 19:40 | 61.13641 | 25.02512 | 27443 ft | 382 kts | 4° |
| 2026-04-20 19:40 | 61.16311 | 25.02477 | 27862 ft | 385 kts | 4° |
| 2026-04-20 19:40 | 61.18992 | 25.02442 | 28276 ft | 387 kts | 4° |
| 2026-04-20 19:41 | 61.21697 | 25.02406 | 28677 ft | 390 kts | 4° |
| 2026-04-20 19:41 | 61.24423 | 25.02369 | 29073 ft | 393 kts | 4° |
| 2026-04-20 19:41 | 61.27162 | 25.02331 | 29463 ft | 395 kts | 4° |
| 2026-04-20 19:41 | 61.29922 | 25.02290 | 29848 ft | 398 kts | 4° |
| 2026-04-20 19:42 | 61.32700 | 25.02245 | 30217 ft | 401 kts | 4° |
| 2026-04-20 19:42 | 61.35496 | 25.02198 | 30555 ft | 403 kts | 4° |
| 2026-04-20 19:42 | 61.38310 | 25.02150 | 30852 ft | 405 kts | 3° |
| 2026-04-20 19:42 | 61.41143 | 25.02104 | 31153 ft | 408 kts | 3° |
| 2026-04-20 19:43 | 61.43024 | 25.02079 | 31346 ft | 409 kts | 3° |
| 2026-04-20 19:43 | 61.46848 | 25.02035 | 31726 ft | 412 kts | 3° |
| 2026-04-20 19:43 | 61.49727 | 25.02002 | 32004 ft | 414 kts | 3° |
| 2026-04-20 19:43 | 61.52604 | 25.01962 | 32395 ft | 413 kts | 3° |
| 2026-04-20 19:44 | 61.55473 | 25.01915 | 32788 ft | 412 kts | 3° |
| 2026-04-20 19:44 | 61.58341 | 25.01865 | 33172 ft | 412 kts | 2° |
| 2026-04-20 19:44 | 61.61205 | 25.01817 | 33559 ft | 411 kts | 2° |
| 2026-04-20 19:44 | 61.64024 | 25.01777 | 33937 ft | 411 kts | 2° |
| 2026-04-20 19:45 | 61.66880 | 25.01737 | 34331 ft | 410 kts | 2° |
| 2026-04-20 19:45 | 61.69733 | 25.01694 | 34651 ft | 410 kts | 2° |
| 2026-04-20 19:45 | 61.72584 | 25.01652 | 34944 ft | 410 kts | 2° |
| 2026-04-20 19:45 | 61.75435 | 25.01613 | 35217 ft | 410 kts | 2° |
| 2026-04-20 19:46 | 61.78294 | 25.01577 | 35485 ft | 411 kts | 2° |
| 2026-04-20 19:46 | 61.81158 | 25.01542 | 35747 ft | 411 kts | 2° |
| 2026-04-20 19:46 | 61.84018 | 25.01499 | 36004 ft | 412 kts | 2° |
| 2026-04-20 19:46 | 61.86883 | 25.01452 | 36267 ft | 412 kts | 2° |
| 2026-04-20 19:47 | 61.89755 | 25.01404 | 36520 ft | 413 kts | 2° |
| 2026-04-20 19:47 | 61.92626 | 25.01357 | 36765 ft | 413 kts | 2° |
| 2026-04-20 19:47 | 61.95499 | 25.01312 | 37005 ft | 413 kts | 2° |
| 2026-04-20 19:47 | 61.98379 | 25.01290 | 37239 ft | 414 kts | 2° |
| 2026-04-20 19:48 | 62.01258 | 25.01256 | 37472 ft | 414 kts | 1° |
| 2026-04-20 19:48 | 62.04139 | 25.01209 | 37703 ft | 414 kts | 1° |
| 2026-04-20 19:48 | 62.07025 | 25.01156 | 37915 ft | 415 kts | 1° |
| 2026-04-20 19:48 | 62.09916 | 25.01104 | 38143 ft | 415 kts | 1° |
| 2026-04-20 19:49 | 62.12806 | 25.01057 | 38311 ft | 416 kts | 1° |
| 2026-04-20 19:49 | 62.18585 | 25.00963 | 38344 ft | 415 kts | 1° |
| 2026-04-20 19:50 | 62.24351 | 25.00874 | 38345 ft | 414 kts | 1° |
| 2026-04-20 19:50 | 62.30116 | 25.00781 | 38348 ft | 414 kts | 1° |
| 2026-04-20 19:51 | 62.35842 | 25.00690 | 38348 ft | 414 kts | 1° |
| 2026-04-20 19:51 | 62.41599 | 25.00604 | 38349 ft | 414 kts | 1° |
| 2026-04-20 19:52 | 62.47364 | 25.00529 | 38347 ft | 414 kts | 1° |
| 2026-04-20 19:52 | 62.53125 | 25.00434 | 38359 ft | 414 kts | 1° |
| 2026-04-20 19:53 | 62.58888 | 25.00340 | 38356 ft | 414 kts | 1° |
| 2026-04-20 19:53 | 62.64651 | 25.00259 | 38370 ft | 414 kts | 1° |
| 2026-04-20 19:54 | 62.70414 | 25.00169 | 38363 ft | 414 kts | 1° |
| 2026-04-20 19:54 | 62.76172 | 25.00070 | 38378 ft | 414 kts | 1° |
| 2026-04-20 19:55 | 62.81931 | 24.99972 | 38366 ft | 414 kts | 1° |
| 2026-04-20 19:55 | 62.87686 | 24.99878 | 38377 ft | 413 kts | 1° |
| 2026-04-20 19:56 | 62.92466 | 24.99813 | 38369 ft | 413 kts | 1° |
| 2026-04-20 19:56 | 62.99195 | 24.99717 | 38372 ft | 413 kts | 1° |
| 2026-04-20 19:57 | 63.04904 | 24.99624 | 38374 ft | 413 kts | 1° |
| 2026-04-20 19:57 | 63.10651 | 24.99521 | 38375 ft | 413 kts | 1° |
| 2026-04-20 19:58 | 63.16397 | 24.99427 | 38379 ft | 413 kts | 1° |
| 2026-04-20 19:58 | 63.22137 | 24.99345 | 38381 ft | 412 kts | 1° |
| 2026-04-20 19:59 | 63.27877 | 24.99251 | 38378 ft | 412 kts | 0° |
| 2026-04-20 19:59 | 63.33617 | 24.99166 | 38382 ft | 412 kts | 1° |
| 2026-04-20 20:00 | 63.39357 | 24.99084 | 38388 ft | 412 kts | 0° |
| 2026-04-20 20:00 | 63.45094 | 24.98989 | 38390 ft | 412 kts | 0° |
| 2026-04-20 20:01 | 63.50828 | 24.98881 | 38385 ft | 412 kts | 0° |
| 2026-04-20 20:01 | 63.56567 | 24.98778 | 38386 ft | 412 kts | 0° |
| 2026-04-20 20:02 | 63.62264 | 24.98686 | 38392 ft | 412 kts | 0° |
| 2026-04-20 20:02 | 63.68037 | 24.98589 | 38391 ft | 412 kts | 0° |
| 2026-04-20 20:03 | 63.73737 | 24.98491 | 38381 ft | 412 kts | 0° |
| 2026-04-20 20:03 | 63.79468 | 24.98395 | 38387 ft | 412 kts | 0° |
| 2026-04-20 20:04 | 63.85205 | 24.98290 | 38398 ft | 412 kts | 0° |
| 2026-04-20 20:04 | 63.90937 | 24.98196 | 38393 ft | 412 kts | 0° |
| 2026-04-20 20:05 | 63.96671 | 24.98105 | 38390 ft | 412 kts | 0° |
| 2026-04-20 20:05 | 64.02400 | 24.98005 | 38391 ft | 412 kts | 0° |
| 2026-04-20 20:06 | 64.08136 | 24.97904 | 38385 ft | 412 kts | 0° |
| 2026-04-20 20:06 | 64.13861 | 24.97787 | 38384 ft | 411 kts | 0° |
| 2026-04-20 20:07 | 64.19555 | 24.97687 | 38383 ft | 411 kts | 0° |
| 2026-04-20 20:07 | 64.25284 | 24.97606 | 38383 ft | 412 kts | 0° |
| 2026-04-20 20:08 | 64.31047 | 24.97509 | 38387 ft | 412 kts | 360° |
| 2026-04-20 20:08 | 64.36740 | 24.97406 | 38383 ft | 412 kts | 360° |
| 2026-04-20 20:09 | 64.42471 | 24.97306 | 38383 ft | 412 kts | 360° |
| 2026-04-20 20:09 | 64.48201 | 24.97199 | 38384 ft | 412 kts | 360° |
| 2026-04-20 20:10 | 64.53927 | 24.97097 | 38385 ft | 412 kts | 360° |
| 2026-04-20 20:10 | 64.59658 | 24.96991 | 38381 ft | 412 kts | 360° |
| 2026-04-20 20:11 | 64.65385 | 24.96892 | 38382 ft | 412 kts | 360° |
| 2026-04-20 20:11 | 64.71114 | 24.96797 | 38383 ft | 412 kts | 359° |
| 2026-04-20 20:12 | 64.76848 | 24.96690 | 38374 ft | 412 kts | 359° |
| 2026-04-20 20:12 | 64.82571 | 24.96585 | 38369 ft | 411 kts | 359° |
| 2026-04-20 20:13 | 64.91159 | 24.96420 | 38367 ft | 412 kts | 359° |
| 2026-04-20 20:13 | 64.96896 | 24.96315 | 38367 ft | 412 kts | 359° |
| 2026-04-20 20:14 | 65.02630 | 24.96199 | 38369 ft | 412 kts | 359° |
| 2026-04-20 20:14 | 65.08365 | 24.96103 | 38367 ft | 412 kts | 359° |
| 2026-04-20 20:15 | 65.14059 | 24.96006 | 38368 ft | 412 kts | 359° |
| 2026-04-20 20:15 | 65.19795 | 24.95887 | 38370 ft | 412 kts | 359° |
| 2026-04-20 20:16 | 65.25530 | 24.95773 | 38371 ft | 412 kts | 359° |
| 2026-04-20 20:16 | 65.31264 | 24.95663 | 38370 ft | 412 kts | 359° |
| 2026-04-20 20:17 | 65.37000 | 24.95561 | 38369 ft | 412 kts | 359° |
| 2026-04-20 20:17 | 65.42734 | 24.95459 | 38369 ft | 412 kts | 359° |
| 2026-04-20 20:18 | 65.48470 | 24.95359 | 38371 ft | 412 kts | 359° |
| 2026-04-20 20:18 | 65.54198 | 24.95238 | 38367 ft | 412 kts | 359° |
| 2026-04-20 20:19 | 65.58965 | 24.95148 | 38366 ft | 412 kts | 359° |
| 2026-04-20 20:19 | 65.64734 | 24.95034 | 38095 ft | 421 kts | 358° |
| 2026-04-20 20:20 | 65.67668 | 24.94971 | 37822 ft | 422 kts | 358° |
| 2026-04-20 20:20 | 65.70602 | 24.94913 | 37553 ft | 421 kts | 358° |
| 2026-04-20 20:20 | 65.73512 | 24.94857 | 37237 ft | 415 kts | 358° |
| 2026-04-20 20:20 | 65.76381 | 24.94804 | 36752 ft | 409 kts | 358° |
| 2026-04-20 20:21 | 65.79213 | 24.94755 | 36287 ft | 404 kts | 358° |
| 2026-04-20 20:21 | 65.82010 | 24.94703 | 35796 ft | 400 kts | 357° |
| 2026-04-20 20:21 | 65.84775 | 24.94648 | 35310 ft | 396 kts | 357° |
| 2026-04-20 20:21 | 65.87517 | 24.94596 | 34832 ft | 392 kts | 357° |
| 2026-04-20 20:22 | 65.90230 | 24.94543 | 34349 ft | 388 kts | 356° |
| 2026-04-20 20:22 | 65.92922 | 24.94491 | 33829 ft | 384 kts | 356° |
| 2026-04-20 20:22 | 65.95575 | 24.94441 | 33368 ft | 379 kts | 356° |
| 2026-04-20 20:22 | 65.98190 | 24.94389 | 32908 ft | 374 kts | 356° |
| 2026-04-20 20:23 | 66.00775 | 24.94335 | 32454 ft | 369 kts | 356° |
| 2026-04-20 20:23 | 66.03326 | 24.94283 | 32012 ft | 364 kts | 356° |
| 2026-04-20 20:23 | 66.05813 | 24.94237 | 31585 ft | 360 kts | 356° |
| 2026-04-20 20:23 | 66.08305 | 24.94194 | 31170 ft | 356 kts | 355° |
| 2026-04-20 20:24 | 66.10771 | 24.94149 | 30749 ft | 352 kts | 355° |
| 2026-04-20 20:24 | 66.13211 | 24.94099 | 30321 ft | 349 kts | 355° |
| 2026-04-20 20:24 | 66.15622 | 24.94045 | 29895 ft | 344 kts | 355° |
| 2026-04-20 20:24 | 66.17993 | 24.93995 | 29508 ft | 338 kts | 355° |
| 2026-04-20 20:25 | 66.20332 | 24.93949 | 29138 ft | 333 kts | 355° |
| 2026-04-20 20:25 | 66.22633 | 24.93902 | 28777 ft | 328 kts | 355° |
| 2026-04-20 20:25 | 66.24892 | 24.93856 | 28423 ft | 322 kts | 355° |
| 2026-04-20 20:25 | 66.27123 | 24.93812 | 28059 ft | 318 kts | 355° |
| 2026-04-20 20:26 | 66.29315 | 24.93776 | 27706 ft | 313 kts | 355° |
| 2026-04-20 20:26 | 66.31477 | 24.93735 | 27342 ft | 308 kts | 355° |
| 2026-04-20 20:26 | 66.33610 | 24.93687 | 26977 ft | 306 kts | 355° |
| 2026-04-20 20:26 | 66.35737 | 24.93644 | 26613 ft | 304 kts | 355° |
| 2026-04-20 20:27 | 66.37850 | 24.93604 | 26247 ft | 303 kts | 355° |
| 2026-04-20 20:27 | 66.39949 | 24.93559 | 25868 ft | 301 kts | 355° |
| 2026-04-20 20:27 | 66.42009 | 24.93514 | 25495 ft | 299 kts | 355° |
| 2026-04-20 20:27 | 66.44087 | 24.93466 | 25105 ft | 298 kts | 355° |
| 2026-04-20 20:28 | 66.46158 | 24.93424 | 24719 ft | 297 kts | 355° |
| 2026-04-20 20:28 | 66.48216 | 24.93379 | 24332 ft | 295 kts | 355° |
| 2026-04-20 20:28 | 66.50262 | 24.93331 | 23944 ft | 294 kts | 355° |
| 2026-04-20 20:28 | 66.52301 | 24.93286 | 23514 ft | 292 kts | 356° |
| 2026-04-20 20:29 | 66.54326 | 24.93244 | 23127 ft | 290 kts | 356° |
| 2026-04-20 20:29 | 66.56334 | 24.93201 | 22755 ft | 288 kts | 356° |
| 2026-04-20 20:29 | 66.58332 | 24.93158 | 22381 ft | 286 kts | 356° |
| 2026-04-20 20:29 | 66.60323 | 24.93114 | 22030 ft | 285 kts | 356° |
| 2026-04-20 20:30 | 66.62301 | 24.93072 | 21658 ft | 284 kts | 356° |
| 2026-04-20 20:30 | 66.64268 | 24.93032 | 21307 ft | 283 kts | 356° |
| 2026-04-20 20:30 | 66.66231 | 24.92995 | 20947 ft | 281 kts | 356° |
| 2026-04-20 20:30 | 66.68186 | 24.92953 | 20598 ft | 280 kts | 356° |
| 2026-04-20 20:31 | 66.70136 | 24.92910 | 20238 ft | 279 kts | 356° |
| 2026-04-20 20:31 | 66.72049 | 24.92870 | 19891 ft | 278 kts | 356° |
| 2026-04-20 20:31 | 66.73982 | 24.92828 | 19547 ft | 277 kts | 356° |
| 2026-04-20 20:31 | 66.75910 | 24.92790 | 19199 ft | 276 kts | 356° |
| 2026-04-20 20:32 | 66.77830 | 24.92747 | 18855 ft | 276 kts | 356° |
| 2026-04-20 20:32 | 66.79746 | 24.92702 | 18490 ft | 275 kts | 356° |
| 2026-04-20 20:32 | 66.81654 | 24.92669 | 18129 ft | 273 kts | 356° |
| 2026-04-20 20:32 | 66.83550 | 24.92633 | 17789 ft | 271 kts | 356° |
| 2026-04-20 20:33 | 66.85435 | 24.92594 | 17458 ft | 270 kts | 356° |
| 2026-04-20 20:33 | 66.87305 | 24.92555 | 17124 ft | 269 kts | 356° |
| 2026-04-20 20:33 | 66.89173 | 24.92518 | 16805 ft | 267 kts | 356° |
| 2026-04-20 20:33 | 66.91031 | 24.92475 | 16481 ft | 266 kts | 356° |
| 2026-04-20 20:34 | 66.92882 | 24.92433 | 16161 ft | 266 kts | 356° |
| 2026-04-20 20:34 | 66.94726 | 24.92396 | 15843 ft | 265 kts | 357° |
| 2026-04-20 20:34 | 66.96566 | 24.92358 | 15525 ft | 264 kts | 357° |
| 2026-04-20 20:34 | 66.98400 | 24.92322 | 15215 ft | 263 kts | 357° |
| 2026-04-20 20:35 | 67.00231 | 24.92286 | 14899 ft | 263 kts | 357° |
| 2026-04-20 20:35 | 67.02034 | 24.92245 | 14585 ft | 262 kts | 357° |
| 2026-04-20 20:35 | 67.03858 | 24.92201 | 14273 ft | 262 kts | 357° |
| 2026-04-20 20:35 | 67.05683 | 24.92156 | 13933 ft | 262 kts | 357° |
| 2026-04-20 20:36 | 67.07499 | 24.92113 | 13602 ft | 261 kts | 357° |
| 2026-04-20 20:36 | 67.09310 | 24.92076 | 13241 ft | 260 kts | 357° |
| 2026-04-20 20:36 | 67.11149 | 24.92037 | 12703 ft | 267 kts | 357° |
| 2026-04-20 20:36 | 67.13003 | 24.91989 | 12338 ft | 266 kts | 358° |
| 2026-04-20 20:37 | 67.14848 | 24.91947 | 12003 ft | 264 kts | 358° |
| 2026-04-20 20:37 | 67.16685 | 24.91909 | 11663 ft | 263 kts | 358° |
| 2026-04-20 20:37 | 67.18509 | 24.91874 | 11316 ft | 262 kts | 358° |
| 2026-04-20 20:37 | 67.20327 | 24.91840 | 10987 ft | 260 kts | 358° |
| 2026-04-20 20:38 | 67.22134 | 24.91797 | 10647 ft | 260 kts | 358° |
| 2026-04-20 20:38 | 67.23939 | 24.91755 | 10293 ft | 259 kts | 358° |
| 2026-04-20 20:38 | 67.25737 | 24.91754 | 9895 ft | 259 kts | 0° |
| 2026-04-20 20:38 | 67.27590 | 24.91984 | 9162 ft | 272 kts | 2° |
| 2026-04-20 20:39 | 67.29495 | 24.92356 | 8658 ft | 273 kts | 3° |
| 2026-04-20 20:39 | 67.31352 | 24.92764 | 8266 ft | 270 kts | 4° |
| 2026-04-20 20:39 | 67.33213 | 24.93169 | 7653 ft | 267 kts | 3° |
| 2026-04-20 20:39 | 67.35083 | 24.93565 | 6932 ft | 265 kts | 3° |
| 2026-04-20 20:40 | 67.36887 | 24.93934 | 6197 ft | 262 kts | 3° |
| 2026-04-20 20:40 | 67.38694 | 24.94298 | 5511 ft | 258 kts | 3° |
| 2026-04-20 20:40 | 67.40409 | 24.94638 | 5305 ft | 236 kts | 3° |
| 2026-04-20 20:40 | 67.41966 | 24.94945 | 5192 ft | 213 kts | 3° |
| 2026-04-20 20:41 | 67.43400 | 24.95227 | 5092 ft | 204 kts | 2° |
| 2026-04-20 20:41 | 67.44816 | 24.95500 | 5011 ft | 203 kts | 2° |
| 2026-04-20 20:41 | 67.46220 | 24.95769 | 4905 ft | 202 kts | 2° |
| 2026-04-20 20:41 | 67.47621 | 24.96041 | 4817 ft | 202 kts | 2° |
| 2026-04-20 20:42 | 67.49019 | 24.96314 | 4726 ft | 201 kts | 2° |
| 2026-04-20 20:42 | 67.50415 | 24.96582 | 4632 ft | 201 kts | 2° |
| 2026-04-20 20:42 | 67.51801 | 24.96427 | 4555 ft | 199 kts | 348° |
| 2026-04-20 20:42 | 67.53139 | 24.95645 | 4356 ft | 195 kts | 345° |
| 2026-04-20 20:43 | 67.54453 | 24.94800 | 4082 ft | 194 kts | 345° |
| 2026-04-20 20:43 | 67.55766 | 24.93954 | 3789 ft | 195 kts | 345° |
| 2026-04-20 20:43 | 67.57084 | 24.93107 | 3490 ft | 195 kts | 345° |
| 2026-04-20 20:43 | 67.58368 | 24.92280 | 3192 ft | 190 kts | 345° |
| 2026-04-20 20:44 | 67.59634 | 24.91465 | 2922 ft | 185 kts | 345° |
| 2026-04-20 20:44 | 67.60838 | 24.90690 | 2606 ft | 171 kts | 345° |
| 2026-04-20 20:44 | 67.61943 | 24.89978 | 2388 ft | 153 kts | 345° |
| 2026-04-20 20:44 | 67.62923 | 24.89345 | 2107 ft | 139 kts | 344° |
| 2026-04-20 20:45 | 67.63827 | 24.88760 | 1884 ft | 130 kts | 344° |
| 2026-04-20 20:45 | 67.64693 | 24.88199 | 1678 ft | 127 kts | 345° |
| 2026-04-20 20:45 | 67.65549 | 24.87645 | 1456 ft | 127 kts | 344° |
| 2026-04-20 20:45 | 67.66414 | 24.87082 | 1260 ft | 129 kts | 345° |
| 2026-04-20 20:46 | 67.67286 | 24.86518 | 1083 ft | 129 kts | 344° |
| 2026-04-20 20:46 | 67.68161 | 24.85950 | 903 ft | 130 kts | 345° |
| 2026-04-20 20:46 | 67.69041 | 24.85386 | 691 ft | 129 kts | 344° |
| 2026-04-20 20:46 | 67.69855 | 24.84852 | 642 ft | 104 kts | 346° |
| 2026-04-20 20:47 | 67.70386 | 24.84501 | 642 ft | 54 kts | 346° |
| 2026-04-20 20:47 | 67.70642 | 24.84337 | 640 ft | 20 kts | 349° |
| 2026-04-20 20:47 | 67.70735 | 24.84542 | 640 ft | 16 kts | 79° |
| 2026-04-20 20:47 | 67.70744 | 24.84689 | 639 ft | 8 kts | 86° |
| 2026-04-20 20:48 | 67.70721 | 24.84776 | 637 ft | 6 kts | 160° |
| 2026-04-20 20:48 | 67.70667 | 24.84803 | 639 ft | 14 kts | 168° |
| 2026-04-20 20:48 | 67.70550 | 24.84875 | 637 ft | 18 kts | 167° |
| 2026-04-20 20:48 | 67.70421 | 24.84956 | 639 ft | 20 kts | 166° |
| 2026-04-20 20:49 | 67.70277 | 24.85048 | 642 ft | 22 kts | 166° |
| 2026-04-20 20:49 | 67.70121 | 24.85144 | 643 ft | 24 kts | 166° |
| 2026-04-20 20:49 | 67.69949 | 24.85250 | 641 ft | 26 kts | 167° |
| 2026-04-20 20:49 | 67.69771 | 24.85360 | 643 ft | 23 kts | 166° |
| 2026-04-20 20:50 | 67.69639 | 24.85441 | 644 ft | 21 kts | 167° |
| 2026-04-20 20:50 | 67.69545 | 24.85520 | 642 ft | 7 kts | 128° |
| 2026-04-20 20:50 | 67.69549 | 24.85651 | 640 ft | 3 kts | 95° |
| 2026-04-20 20:50 | 67.69539 | 24.85693 | 641 ft | 0 kts | 124° |